Time;durP1;ratioP1;P1;durP2;ratioP2;P2;SDS_P1;SDS_P2;PMS_P1;PMS_P2;Temp;Humidity;BMP_temperature;BMP_pressure;BME280_temperature;BME280_humidity;BME280_pressure;Samples;Min_cycle;Max_cycle;Signal;HPM_P1;HPM_P2
2022/07/04 00:00:20;;;;;;;5.82;2.08;;;25.30;85.10;;;;;;4844991;29;20045;-75
2022/07/04 00:02:51;;;;;;;5.15;1.67;;;25.30;86.40;;;;;;4853845;29;20060;-76
2022/07/04 00:05:23;;;;;;;4.97;2.00;;;25.20;87.30;;;;;;4840860;29;20034;-73
2022/07/04 00:07:54;;;;;;;5.43;2.05;;;25.20;87.80;;;;;;4848735;29;20057;-77
2022/07/04 00:10:24;;;;;;;7.25;2.03;;;25.20;88.40;;;;;;4838260;29;20044;-75
2022/07/04 00:12:54;;;;;;;5.57;1.90;;;25.20;90.90;;;;;;4849187;29;20100;-73
2022/07/04 00:15:24;;;;;;;5.60;1.80;;;25.20;91.70;;;;;;4852930;29;20038;-73
2022/07/04 00:17:54;;;;;;;8.82;1.90;;;25.20;92.10;;;;;;4852533;29;20061;-75
2022/07/04 00:20:28;;;;;;;5.38;1.83;;;25.10;92.70;;;;;;4850413;29;20041;-78
2022/07/04 00:22:59;;;;;;;2.67;1.45;;;25.10;93.00;;;;;;4853791;29;20046;-78
2022/07/04 00:25:29;;;;;;;4.97;1.47;;;25.10;95.00;;;;;;4850878;29;20048;-73
2022/07/04 00:27:59;;;;;;;9.00;1.60;;;25.00;95.40;;;;;;4854663;29;20549;-72
2022/07/04 00:30:29;;;;;;;6.30;1.77;;;25.00;96.70;;;;;;4856789;29;20041;-79
2022/07/04 00:33:08;;;;;;;2.97;1.70;;;24.90;97.20;;;;;;4845688;29;20041;-77
2022/07/04 00:35:34;;;;;;;5.38;1.50;;;24.90;97.80;;;;;;4850288;29;20048;-73
2022/07/04 00:37:59;;;;;;;3.80;1.60;;;24.80;99.40;;;;;;4847032;29;20030;-72
2022/07/04 00:40:25;;;;;;;3.45;1.55;;;24.80;99.30;;;;;;4853299;29;20044;-72
2022/07/04 00:42:51;;;;;;;5.00;1.52;;;24.70;99.00;;;;;;4862029;29;20041;-74
2022/07/04 00:45:17;;;;;;;4.80;1.70;;;24.80;98.60;;;;;;4838818;29;20065;-77
2022/07/04 00:47:43;;;;;;;6.65;1.83;;;24.70;99.10;;;;;;4845731;29;20093;-73
2022/07/04 00:50:09;;;;;;;4.60;1.85;;;24.70;99.80;;;;;;4849567;29;20038;-72
2022/07/04 00:52:35;;;;;;;5.65;1.60;;;24.70;99.40;;;;;;4838289;29;20044;-73
2022/07/04 00:55:01;;;;;;;7.25;1.75;;;24.70;98.90;;;;;;4852526;29;20046;-77
2022/07/04 00:57:29;;;;;;;5.57;1.60;;;24.60;96.60;;;;;;4848192;29;20086;-73
2022/07/04 00:59:55;;;;;;;6.85;1.60;;;24.50;96.10;;;;;;4851599;29;20034;-77
2022/07/04 01:02:21;;;;;;;5.35;1.58;;;24.50;96.70;;;;;;4849747;29;20133;-73
2022/07/04 01:04:48;;;;;;;4.75;1.65;;;24.50;96.20;;;;;;4852133;29;20034;-72
2022/07/04 01:07:14;;;;;;;3.30;1.45;;;24.50;97.50;;;;;;4844095;29;20052;-71
2022/07/04 01:09:40;;;;;;;6.40;1.85;;;24.50;98.30;;;;;;4847892;29;20088;-76
2022/07/04 01:12:06;;;;;;;5.40;1.63;;;24.50;98.00;;;;;;4848469;29;20069;-73
2022/07/04 01:14:32;;;;;;;2.55;1.42;;;24.50;97.40;;;;;;4851343;29;20493;-71
2022/07/04 01:16:58;;;;;;;5.90;1.33;;;24.50;96.70;;;;;;4851253;29;20153;-72
2022/07/04 01:19:24;;;;;;;6.78;1.85;;;24.50;96.60;;;;;;4849400;29;20042;-78
2022/07/04 01:21:50;;;;;;;3.53;1.70;;;24.50;96.80;;;;;;4837966;29;20160;-73
2022/07/04 01:24:16;;;;;;;5.63;1.63;;;24.40;97.30;;;;;;4849538;29;20045;-72
2022/07/04 01:26:41;;;;;;;5.93;1.52;;;24.30;96.70;;;;;;4849965;29;20106;-72
2022/07/04 01:29:09;;;;;;;4.72;1.90;;;24.30;97.70;;;;;;4852974;29;20108;-75
2022/07/04 01:31:34;;;;;;;8.25;1.60;;;24.10;97.50;;;;;;4854402;29;20038;-73
2022/07/04 01:34:00;;;;;;;4.38;1.50;;;24.10;98.10;;;;;;4849829;29;20038;-72
2022/07/04 01:36:26;;;;;;;5.20;1.63;;;24.00;98.60;;;;;;4847166;29;20042;-73
2022/07/04 01:38:55;;;;;;;5.32;1.58;;;24.00;99.10;;;;;;4849630;29;20133;-74
2022/07/04 01:41:21;;;;;;;4.28;1.38;;;23.90;99.30;;;;;;4848998;29;20042;-72
2022/07/04 01:43:46;;;;;;;4.78;1.42;;;23.90;99.90;;;;;;4848593;29;20040;-78
2022/07/04 01:46:12;;;;;;;6.35;1.30;;;23.80;99.90;;;;;;4851941;29;20048;-77
2022/07/04 01:48:40;;;;;;;3.67;1.48;;;23.90;99.90;;;;;;4849650;29;20044;-73
2022/07/04 01:51:05;;;;;;;5.78;1.45;;;23.90;99.90;;;;;;4848071;29;20041;-75
2022/07/04 01:53:36;;;;;;;7.65;1.35;;;23.90;99.90;;;;;;4843911;29;20106;-77
2022/07/04 01:56:01;;;;;;;4.22;1.40;;;23.90;99.90;;;;;;4840614;29;20693;-73
2022/07/04 01:58:27;;;;;;;3.50;0.82;;;24.00;99.40;;;;;;4851701;29;20109;-71
2022/07/04 02:03:38;;;;;;;2.17;0.90;;;23.90;97.30;;;;;;4848038;29;20045;-76
2022/07/04 02:06:04;;;;;;;3.65;0.90;;;24.00;96.10;;;;;;4853382;29;20038;-75
2022/07/04 02:09:14;;;;;;;6.45;1.00;;;24.10;95.10;;;;;;4851843;29;20053;-72
2022/07/04 02:11:15;;;;;;;3.20;1.00;;;24.00;95.20;;;;;;4845053;29;20038;-76
2022/07/04 02:13:41;;;;;;;2.92;0.75;;;24.00;94.50;;;;;;4846978;29;20394;-73
2022/07/04 02:16:07;;;;;;;2.13;0.75;;;24.00;94.50;;;;;;4849284;29;20041;-72
2022/07/04 02:18:33;;;;;;;2.72;0.57;;;24.00;94.40;;;;;;4852734;29;20038;-77
2022/07/04 02:20:59;;;;;;;2.10;0.80;;;24.00;94.20;;;;;;4853099;29;20037;-75
2022/07/04 02:23:25;;;;;;;2.15;0.63;;;23.90;94.10;;;;;;4850889;29;20073;-72
2022/07/04 02:25:51;;;;;;;1.33;0.70;;;23.90;93.70;;;;;;4856082;29;20053;-73
2022/07/04 02:28:18;;;;;;;2.75;0.65;;;23.90;93.30;;;;;;4855558;29;20030;-76
2022/07/04 02:30:45;;;;;;;3.67;0.60;;;23.90;93.30;;;;;;4853523;29;20030;-72
2022/07/04 02:33:10;;;;;;;3.20;0.65;;;23.80;92.70;;;;;;4850903;29;20126;-73
2022/07/04 02:35:36;;;;;;;1.08;0.70;;;23.90;91.10;;;;;;4836422;29;20124;-77
2022/07/04 02:38:02;;;;;;;3.90;0.70;;;23.90;90.90;;;;;;4850094;29;20519;-75
2022/07/04 02:40:28;;;;;;;0.73;0.50;;;23.90;91.40;;;;;;4848557;29;20034;-73
2022/07/04 02:42:53;;;;;;;3.38;0.60;;;23.90;91.80;;;;;;4839047;29;20142;-73
2022/07/04 02:45:19;;;;;;;2.97;0.80;;;23.80;91.90;;;;;;4847556;29;20114;-72
2022/07/04 02:47:45;;;;;;;3.03;0.60;;;23.70;92.10;;;;;;4854444;29;20104;-75
2022/07/04 02:50:10;;;;;;;1.73;0.90;;;23.70;92.20;;;;;;4835147;29;20549;-78
2022/07/04 02:52:36;;;;;;;1.48;0.70;;;23.70;92.50;;;;;;4855841;29;20526;-78
2022/07/04 02:55:03;;;;;;;3.03;0.75;;;23.80;92.00;;;;;;4841774;29;20026;-72
2022/07/04 02:57:29;;;;;;;1.45;0.70;;;23.80;91.50;;;;;;4856357;29;20037;-72
2022/07/04 02:59:55;;;;;;;0.80;0.60;;;23.70;91.50;;;;;;4853151;29;20057;-75
2022/07/04 03:02:20;;;;;;;1.80;0.80;;;23.70;91.20;;;;;;4850688;29;20048;-77
2022/07/04 03:04:46;;;;;;;1.20;0.70;;;23.80;91.10;;;;;;4853303;29;20077;-72
2022/07/04 03:07:12;;;;;;;1.98;0.80;;;23.70;90.50;;;;;;4848815;29;20101;-72
2022/07/04 03:09:39;;;;;;;2.22;1.00;;;23.70;90.30;;;;;;4850396;29;20140;-76
2022/07/04 03:12:05;;;;;;;3.30;1.02;;;23.70;90.30;;;;;;4848693;29;20063;-77
2022/07/04 03:14:31;;;;;;;1.70;0.65;;;23.70;90.30;;;;;;4858720;29;20042;-72
2022/07/04 03:16:57;;;;;;;4.05;0.93;;;23.70;90.00;;;;;;4849277;29;20041;-72
2022/07/04 03:19:24;;;;;;;1.55;0.70;;;23.60;88.80;;;;;;4848152;29;22291;-73
2022/07/04 03:21:50;;;;;;;0.82;0.47;;;23.70;88.70;;;;;;4847171;29;20816;-72
2022/07/04 03:24:15;;;;;;;2.90;0.68;;;23.80;87.50;;;;;;4850824;29;20056;-71
2022/07/04 03:26:41;;;;;;;1.02;0.57;;;23.70;87.30;;;;;;4836498;29;20038;-74
2022/07/04 03:29:07;;;;;;;2.70;0.50;;;23.60;87.40;;;;;;4847233;29;20037;-78
2022/07/04 03:31:33;;;;;;;1.67;0.60;;;23.60;87.10;;;;;;4855694;29;20040;-76
2022/07/04 03:33:58;;;;;;;1.15;0.60;;;23.60;86.40;;;;;;4849457;29;20070;-73
2022/07/04 03:36:24;;;;;;;0.65;0.50;;;23.40;86.50;;;;;;4851159;29;20435;-71
2022/07/04 03:38:50;;;;;;;1.35;0.55;;;23.50;85.50;;;;;;4851767;29;20581;-74
2022/07/04 03:41:16;;;;;;;2.25;0.60;;;23.50;83.10;;;;;;4850951;29;20049;-78
2022/07/04 03:43:42;;;;;;;1.60;0.70;;;23.60;82.60;;;;;;4849995;29;20044;-75
2022/07/04 03:46:07;;;;;;;2.25;0.60;;;23.70;81.80;;;;;;4838149;29;20046;-73
2022/07/04 03:48:33;;;;;;;2.38;0.73;;;23.70;81.60;;;;;;4848848;29;20547;-72
2022/07/04 03:50:59;;;;;;;1.38;0.57;;;23.60;82.00;;;;;;4849934;29;20035;-77
2022/07/04 03:53:25;;;;;;;1.10;0.60;;;23.70;82.40;;;;;;4850664;29;20034;-77
2022/07/04 03:55:51;;;;;;;2.40;0.90;;;23.60;83.50;;;;;;4852310;29;20049;-73
2022/07/04 03:58:17;;;;;;;1.92;0.65;;;23.60;83.70;;;;;;4850243;29;20046;-73
2022/07/04 04:00:43;;;;;;;2.13;0.80;;;23.50;84.80;;;;;;4852440;29;20078;-76
2022/07/04 04:05:26;;;;;;;3.00;0.90;;;23.50;86.50;;;;;;4835652;29;20089;-77
2022/07/04 04:05:56;;;;;;;1.77;0.85;;;23.40;87.50;;;;;;4853838;29;20447;-77
2022/07/04 04:08:22;;;;;;;3.33;1.10;;;23.40;89.30;;;;;;4846998;29;20041;-72
2022/07/04 04:10:49;;;;;;;4.72;1.20;;;23.40;90.40;;;;;;4865971;29;20125;-76
2022/07/04 04:13:15;;;;;;;3.28;1.02;;;23.40;90.80;;;;;;4850972;29;20454;-72
2022/07/04 04:15:42;;;;;;;6.05;1.20;;;23.50;91.20;;;;;;4851543;29;20169;-74
2022/07/04 04:18:08;;;;;;;5.43;1.50;;;23.60;91.70;;;;;;4847205;29;20112;-77
2022/07/04 04:20:34;;;;;;;3.75;1.40;;;23.60;91.70;;;;;;4847213;29;20434;-72
2022/07/04 04:23:00;;;;;;;4.53;1.27;;;23.60;91.60;;;;;;4867042;29;20029;-72
2022/07/04 04:25:26;;;;;;;3.95;1.23;;;23.70;91.70;;;;;;4851598;29;20141;-72
2022/07/04 04:27:52;;;;;;;5.00;1.60;;;23.70;92.00;;;;;;4853578;29;20042;-76
2022/07/04 04:30:17;;;;;;;3.17;1.35;;;23.70;92.20;;;;;;4846621;29;20041;-76
2022/07/04 04:32:43;;;;;;;4.60;1.48;;;23.80;92.50;;;;;;4844629;29;20182;-72
2022/07/04 04:35:09;;;;;;;6.18;2.80;;;23.80;92.40;;;;;;4848686;29;20029;-71
2022/07/04 04:37:35;;;;;;;5.65;2.03;;;23.90;92.10;;;;;;4849117;29;20391;-73
2022/07/04 04:40:00;;;;;;;4.05;1.38;;;23.90;92.20;;;;;;4853322;29;20042;-78
2022/07/04 04:42:26;;;;;;;4.25;1.42;;;23.90;92.00;;;;;;4849370;29;20076;-78
2022/07/04 04:44:52;;;;;;;5.70;1.52;;;24.00;91.80;;;;;;4846822;29;20042;-74
2022/07/04 04:47:18;;;;;;;3.95;1.38;;;24.10;91.60;;;;;;4851240;29;20042;-72
2022/07/04 04:49:43;;;;;;;7.32;1.50;;;24.10;91.50;;;;;;4846528;29;20112;-73
2022/07/04 04:52:09;;;;;;;5.13;1.35;;;24.20;90.80;;;;;;4845843;29;20057;-77
2022/07/04 04:54:36;;;;;;;4.65;1.17;;;24.30;89.00;;;;;;4846744;29;20060;-77
2022/07/04 04:57:02;;;;;;;6.15;1.45;;;24.40;88.70;;;;;;4848678;29;20045;-72
2022/07/04 04:59:31;;;;;;;6.03;1.10;;;24.40;88.70;;;;;;4850241;29;20033;-71
2022/07/04 05:01:58;;;;;;;2.72;1.17;;;24.50;88.00;;;;;;4850883;29;20117;-72
2022/07/04 05:04:24;;;;;;;4.20;1.30;;;24.60;88.10;;;;;;4848670;29;20067;-77
2022/07/04 05:06:50;;;;;;;7.85;1.40;;;24.50;88.10;;;;;;4847464;29;20048;-75
2022/07/04 05:09:16;;;;;;;3.22;1.27;;;24.50;89.50;;;;;;4849635;29;20451;-73
2022/07/04 05:11:42;;;;;;;3.67;1.23;;;24.60;88.10;;;;;;4849124;29;20037;-76
2022/07/04 05:14:08;;;;;;;5.38;1.10;;;24.80;86.30;;;;;;4847394;29;20042;-78
2022/07/04 05:16:33;;;;;;;3.53;1.23;;;24.90;86.00;;;;;;4849961;29;20034;-73
2022/07/04 05:19:00;;;;;;;3.85;1.30;;;25.10;85.20;;;;;;4848430;29;20033;-73
2022/07/04 05:21:28;;;;;;;5.13;1.48;;;25.10;87.20;;;;;;4849231;29;20091;-74
2022/07/04 05:23:57;;;;;;;6.15;1.35;;;25.20;87.80;;;;;;4739406;29;3232518;-72
2022/07/04 05:26:23;;;;;;;5.38;1.15;;;25.20;87.20;;;;;;4847093;29;20430;-72
2022/07/04 05:28:50;;;;;;;2.60;1.13;;;25.30;85.30;;;;;;4846918;29;20033;-76
2022/07/04 05:31:16;;;;;;;4.05;1.10;;;25.40;83.30;;;;;;4861147;29;20037;-75
2022/07/04 05:33:42;;;;;;;2.45;0.80;;;25.60;80.20;;;;;;4847757;29;20048;-73
2022/07/04 05:36:08;;;;;;;3.58;1.00;;;25.60;80.50;;;;;;4848757;29;20034;-77
2022/07/04 05:38:34;;;;;;;4.07;1.30;;;25.60;81.00;;;;;;4844387;29;20045;-74
2022/07/04 05:41:01;;;;;;;2.92;1.23;;;25.70;81.50;;;;;;4848259;29;20042;-73
2022/07/04 05:43:26;;;;;;;8.63;1.30;;;25.80;80.90;;;;;;4849243;29;20030;-78
2022/07/04 05:45:52;;;;;;;5.65;1.42;;;25.90;79.90;;;;;;4849416;29;20146;-74
2022/07/04 05:48:19;;;;;;;5.15;1.10;;;26.00;79.70;;;;;;4845320;29;20030;-72
2022/07/04 05:50:45;;;;;;;3.88;1.40;;;26.00;79.00;;;;;;4846272;29;20117;-73
2022/07/04 05:53:11;;;;;;;3.58;1.92;;;26.10;78.80;;;;;;4849379;29;20138;-76
2022/07/04 05:55:37;;;;;;;2.95;1.40;;;26.10;77.90;;;;;;4847272;29;20034;-73
2022/07/04 05:58:09;;;;;;;4.50;1.60;;;26.10;77.30;;;;;;4842038;29;20034;-73
2022/07/04 06:00:35;;;;;;;3.50;1.10;;;26.10;77.00;;;;;;4845506;29;20030;-75
2022/07/04 06:03:01;;;;;;;14.07;2.88;;;26.20;76.10;;;;;;4848907;29;20034;-76
2022/07/04 06:05:27;;;;;;;12.38;2.33;;;26.20;75.60;;;;;;4841060;29;20048;-74
2022/07/04 06:07:52;;;;;;;5.93;1.30;;;26.40;73.90;;;;;;4846706;29;20130;-73
2022/07/04 06:10:18;;;;;;;23.95;2.75;;;26.40;73.20;;;;;;4847119;29;20034;-76
2022/07/04 06:12:44;;;;;;;29.58;2.80;;;26.50;72.40;;;;;;4831092;29;20125;-77
2022/07/04 06:15:10;;;;;;;9.82;1.50;;;26.60;70.80;;;;;;4845625;29;20367;-73
2022/07/04 06:17:37;;;;;;;6.75;1.75;;;26.70;71.10;;;;;;4843591;29;20037;-73
2022/07/04 06:20:03;;;;;;;11.52;1.33;;;26.80;70.40;;;;;;4846843;29;20526;-73
2022/07/04 06:22:42;;;;;;;7.35;1.52;;;26.80;69.70;;;;;;4849645;29;20069;-74
2022/07/04 06:25:15;;;;;;;5.03;1.05;;;26.90;69.40;;;;;;4843934;29;20045;-75
2022/07/04 06:27:43;;;;;;;7.20;1.23;;;27.00;68.90;;;;;;4843033;29;20442;-72
2022/07/04 06:30:10;;;;;;;2.85;1.30;;;27.10;69.60;;;;;;4845600;29;20098;-75
2022/07/04 06:32:59;;;;;;;6.03;1.25;;;27.20;69.90;;;;;;4851469;29;20436;-76
2022/07/04 06:35:45;;;;;;;3.78;1.20;;;27.30;69.60;;;;;;4849418;29;20681;-75
2022/07/04 06:38:17;;;;;;;5.85;1.35;;;27.40;69.20;;;;;;4861619;29;20041;-74
2022/07/04 06:40:44;;;;;;;8.23;1.70;;;27.50;69.10;;;;;;4847392;29;20106;-75
2022/07/04 06:43:10;;;;;;;6.43;1.60;;;27.60;70.00;;;;;;4861902;29;20046;-72
2022/07/04 06:45:36;;;;;;;9.82;1.65;;;27.70;69.60;;;;;;4855095;29;20105;-75
2022/07/04 06:48:04;;;;;;;11.40;2.33;;;27.80;70.20;;;;;;4844264;29;20063;-75
2022/07/04 06:50:34;;;;;;;9.80;1.80;;;27.90;71.20;;;;;;4850063;29;20038;-75
2022/07/04 06:53:03;;;;;;;6.70;1.60;;;27.90;72.00;;;;;;4850838;29;20038;-76
2022/07/04 06:55:30;;;;;;;5.45;1.17;;;27.90;72.10;;;;;;4848018;29;20029;-77
2022/07/04 06:57:57;;;;;;;3.83;1.30;;;28.00;72.30;;;;;;4853902;29;20452;-73
2022/07/04 07:00:25;;;;;;;11.50;1.98;;;28.10;72.30;;;;;;4847370;29;20113;-77
2022/07/04 07:02:51;;;;;;;9.15;1.70;;;28.20;72.50;;;;;;4817963;29;20043;-72
2022/07/04 07:05:17;;;;;;;19.15;2.00;;;28.20;72.80;;;;;;4847384;29;20037;-77
2022/07/04 07:07:43;;;;;;;18.35;2.17;;;28.30;73.20;;;;;;4854426;29;20086;-76
2022/07/04 07:10:09;;;;;;;7.93;1.70;;;28.40;73.30;;;;;;4845197;29;20078;-74
2022/07/04 07:12:35;;;;;;;20.55;2.55;;;28.50;73.60;;;;;;4852794;29;20041;-74
2022/07/04 07:15:02;;;;;;;5.13;1.77;;;28.60;74.10;;;;;;4855388;29;20038;-78
2022/07/04 07:17:28;;;;;;;7.15;1.77;;;28.70;74.40;;;;;;4856715;29;20405;-74
2022/07/04 07:19:54;;;;;;;3.20;1.70;;;28.80;74.90;;;;;;4855372;29;20037;-75
2022/07/04 07:22:20;;;;;;;8.20;1.67;;;28.90;75.40;;;;;;4851365;29;20052;-77
2022/07/04 07:24:46;;;;;;;7.53;1.83;;;28.90;75.90;;;;;;4858869;29;20045;-73
2022/07/04 07:27:12;;;;;;;4.10;1.60;;;29.00;76.20;;;;;;4855042;29;20494;-73
2022/07/04 07:29:38;;;;;;;12.05;2.00;;;29.10;76.50;;;;;;4860356;29;20073;-76
2022/07/04 07:32:05;;;;;;;6.45;1.90;;;29.20;76.90;;;;;;4854870;29;20042;-75
2022/07/04 07:34:32;;;;;;;10.18;1.75;;;29.40;77.20;;;;;;4850334;29;20045;-73
2022/07/04 07:36:58;;;;;;;4.53;1.38;;;29.50;77.20;;;;;;4836268;29;20121;-78
2022/07/04 07:39:25;;;;;;;6.40;1.77;;;29.50;77.20;;;;;;4849500;29;20120;-76
2022/07/04 07:41:51;;;;;;;8.02;1.90;;;29.60;77.20;;;;;;4850827;29;20153;-72
2022/07/04 07:44:16;;;;;;;14.85;2.10;;;29.80;77.20;;;;;;4849758;29;20136;-74
2022/07/04 07:46:42;;;;;;;6.10;1.98;;;29.90;77.50;;;;;;4836858;29;20348;-76
2022/07/04 07:49:08;;;;;;;6.88;1.50;;;29.90;77.90;;;;;;4829038;29;20124;-78
2022/07/04 07:51:34;;;;;;;9.43;1.92;;;30.00;78.10;;;;;;4843201;29;20060;-78
2022/07/04 07:54:00;;;;;;;14.23;2.38;;;30.00;78.20;;;;;;4822642;29;20049;-73
2022/07/04 07:56:26;;;;;;;9.32;2.40;;;30.10;78.40;;;;;;4843174;29;20049;-73
2022/07/04 07:58:53;;;;;;;14.80;2.65;;;30.20;78.70;;;;;;4843196;29;20053;-72
2022/07/04 08:01:20;;;;;;;14.73;2.58;;;30.30;78.60;;;;;;4839348;29;20033;-79
2022/07/04 08:06:32;;;;;;;8.13;2.22;;;30.50;78.10;;;;;;4840384;29;20080;-78
2022/07/04 08:08:58;;;;;;;6.70;1.95;;;30.50;77.70;;;;;;4838175;29;20041;-72
2022/07/04 08:11:25;;;;;;;10.32;2.00;;;30.70;77.80;;;;;;4840988;29;20038;-72
2022/07/04 08:13:51;;;;;;;7.55;1.80;;;30.70;77.50;;;;;;4840153;29;20042;-76
2022/07/04 08:16:17;;;;;;;5.95;1.77;;;30.80;75.90;;;;;;4841203;29;20044;-77
2022/07/04 08:18:43;;;;;;;7.10;1.63;;;30.80;75.60;;;;;;4808871;29;20061;-75
2022/07/04 08:21:09;;;;;;;7.82;1.80;;;30.90;75.50;;;;;;4843407;29;20101;-75
2022/07/04 08:23:36;;;;;;;7.57;1.90;;;31.10;76.00;;;;;;4841613;29;20041;-73
2022/07/04 08:26:03;;;;;;;5.53;1.55;;;31.20;76.00;;;;;;4837116;29;20037;-76
2022/07/04 08:28:30;;;;;;;7.15;1.75;;;31.30;75.80;;;;;;4837201;29;20041;-73
2022/07/04 08:30:57;;;;;;;9.02;1.73;;;31.40;75.90;;;;;;4836739;29;20364;-78
2022/07/04 08:33:23;;;;;;;4.88;1.77;;;31.40;75.90;;;;;;4837134;29;20126;-78
2022/07/04 08:35:49;;;;;;;10.35;2.08;;;31.50;75.90;;;;;;4841460;29;20045;-74
2022/07/04 08:38:18;;;;;;;7.78;1.85;;;31.50;75.70;;;;;;4853315;29;20513;-74
2022/07/04 08:40:44;;;;;;;13.75;2.53;;;31.70;75.80;;;;;;4849844;29;20022;-73
2022/07/04 08:43:13;;;;;;;9.48;1.95;;;31.90;75.90;;;;;;4839859;29;20110;-73
2022/07/04 08:45:40;;;;;;;9.70;2.83;;;32.80;76.20;;;;;;4845417;29;20062;-74
2022/07/04 08:48:08;;;;;;;7.15;2.17;;;33.60;75.90;;;;;;4854957;29;20037;-77
2022/07/04 08:50:49;;;;;;;13.40;2.15;;;34.00;74.50;;;;;;4851321;29;20050;-74
2022/07/04 08:53:24;;;;;;;5.55;1.67;;;34.40;74.90;;;;;;4855402;29;20044;-75
2022/07/04 08:58:37;;;;;;;7.85;1.80;;;34.90;74.60;;;;;;4848532;29;20049;-75
2022/07/04 09:01:15;;;;;;;7.13;2.05;;;34.70;73.80;;;;;;4848444;29;20033;-77
2022/07/04 09:03:42;;;;;;;6.22;2.17;;;34.20;74.50;;;;;;4821806;29;20037;-74
2022/07/04 09:06:09;;;;;;;11.63;2.40;;;34.30;74.50;;;;;;4825018;29;20049;-73
2022/07/04 09:08:36;;;;;;;8.57;2.20;;;34.80;74.80;;;;;;4838921;29;20044;-75
2022/07/04 09:11:03;;;;;;;6.95;2.00;;;35.00;74.60;;;;;;4825371;29;21745;-74
2022/07/04 09:13:30;;;;;;;12.93;2.50;;;35.60;73.70;;;;;;4825152;29;20069;-73
2022/07/04 09:15:56;;;;;;;12.55;2.85;;;35.90;73.40;;;;;;4837890;29;20042;-77
2022/07/04 09:18:25;;;;;;;9.82;1.83;;;36.20;72.30;;;;;;4835221;29;20042;-77
2022/07/04 09:20:55;;;;;;;10.48;2.47;;;36.50;70.70;;;;;;4841185;29;20453;-77
2022/07/04 09:23:25;;;;;;;4.55;1.85;;;36.70;70.40;;;;;;4840256;29;20072;-75
2022/07/04 09:26:13;;;;;;;8.95;1.80;;;36.80;68.90;;;;;;4839280;29;20041;-77
2022/07/04 09:28:56;;;;;;;10.75;2.50;;;36.70;67.90;;;;;;4834360;29;20052;-73
2022/07/04 09:31:24;;;;;;;8.18;1.75;;;37.00;67.90;;;;;;4841499;29;20181;-73
2022/07/04 09:33:52;;;;;;;8.10;2.05;;;36.70;66.50;;;;;;4838589;29;21041;-77
2022/07/04 09:36:29;;;;;;;9.55;1.80;;;37.00;65.30;;;;;;4838953;29;20044;-76
2022/07/04 09:39:09;;;;;;;5.25;1.27;;;36.70;65.50;;;;;;4839295;29;21725;-75
2022/07/04 09:41:58;;;;;;;5.77;1.53;;;36.50;64.50;;;;;;4839666;29;20072;-73
2022/07/04 09:44:28;;;;;;;9.35;2.10;;;36.00;64.00;;;;;;4832370;29;20041;-77
2022/07/04 09:46:56;;;;;;;8.38;2.00;;;36.80;64.30;;;;;;4845445;29;20049;-78
2022/07/04 09:49:22;;;;;;;14.10;2.20;;;37.30;62.70;;;;;;4838117;29;21119;-78
2022/07/04 09:51:51;;;;;;;10.40;2.10;;;36.70;62.90;;;;;;4843586;29;20059;-76
2022/07/04 09:54:26;;;;;;;5.47;1.58;;;36.90;62.50;;;;;;4838898;29;20132;-76
2022/07/04 09:56:57;;;;;;;14.40;2.70;;;36.80;62.20;;;;;;4845651;29;20051;-76
2022/07/04 09:59:26;;;;;;;12.32;1.60;;;36.80;62.40;;;;;;4839898;29;20124;-74
2022/07/04 10:02:13;;;;;;;16.13;3.00;;;36.80;62.30;;;;;;4841963;29;20069;-72
2022/07/04 10:04:54;;;;;;;12.23;2.00;;;36.20;62.70;;;;;;4842952;29;20105;-74
2022/07/04 10:07:47;;;;;;;13.05;2.17;;;37.00;62.30;;;;;;4842652;29;20037;-74
2022/07/04 10:10:24;;;;;;;26.83;3.08;;;37.50;61.50;;;;;;4839667;29;20049;-75
2022/07/04 10:12:51;;;;;;;19.25;3.85;;;37.80;60.70;;;;;;4843039;29;20046;-74
2022/07/04 10:15:18;;;;;;;26.55;3.75;;;36.80;60.10;;;;;;4837552;29;20053;-77
2022/07/04 10:17:43;;;;;;;23.00;2.55;;;35.50;60.60;;;;;;4837690;29;20069;-74
2022/07/04 10:20:14;;;;;;;20.58;3.00;;;34.40;61.20;;;;;;4837178;29;20128;-72
2022/07/04 10:22:40;;;;;;;13.63;2.75;;;33.50;61.50;;;;;;4824873;29;20181;-74
2022/07/04 10:25:07;;;;;;;14.00;1.85;;;33.10;61.00;;;;;;4838139;29;20056;-78
2022/07/04 10:27:34;;;;;;;21.90;3.25;;;32.50;60.50;;;;;;4839471;29;20490;-72
2022/07/04 10:30:01;;;;;;;17.52;2.33;;;32.50;61.60;;;;;;4854112;29;20037;-77
2022/07/04 10:32:29;;;;;;;20.05;2.90;;;32.70;61.20;;;;;;4840030;29;20409;-72
2022/07/04 10:34:54;;;;;;;26.13;3.00;;;32.20;62.80;;;;;;4851264;29;20034;-77
2022/07/04 10:37:21;;;;;;;11.15;2.55;;;32.10;65.20;;;;;;4838912;29;20057;-78
2022/07/04 10:39:47;;;;;;;9.52;1.40;;;31.80;68.50;;;;;;4844896;29;20112;-73
2022/07/04 10:42:29;;;;;;;11.07;2.05;;;31.80;70.90;;;;;;4835871;29;20050;-73
2022/07/04 10:45:01;;;;;;;9.60;2.50;;;31.80;75.40;;;;;;4849924;29;20045;-73
2022/07/04 10:47:30;;;;;;;9.52;2.08;;;31.70;77.20;;;;;;4845184;29;20533;-76
2022/07/04 10:49:58;;;;;;;14.10;1.90;;;32.00;77.80;;;;;;4851979;29;20041;-78
2022/07/04 10:52:30;;;;;;;8.50;1.60;;;32.10;78.10;;;;;;4840557;29;20576;-77
2022/07/04 10:55:10;;;;;;;8.25;2.15;;;32.10;75.40;;;;;;4842946;29;20041;-77
2022/07/04 10:57:38;;;;;;;17.13;2.38;;;32.20;74.30;;;;;;4840710;29;20053;-72
2022/07/04 11:00:07;;;;;;;11.23;1.75;;;32.20;72.90;;;;;;4843686;29;20996;-77
2022/07/04 11:02:34;;;;;;;21.25;1.60;;;32.30;71.80;;;;;;4846282;29;20073;-77
2022/07/04 11:05:05;;;;;;;25.88;3.58;;;32.10;69.10;;;;;;4841996;29;20493;-73
2022/07/04 11:07:40;;;;;;;28.00;3.45;;;32.30;68.20;;;;;;4815375;29;20059;-73
2022/07/04 11:10:23;;;;;;;6.63;1.50;;;32.50;68.10;;;;;;4846237;29;20136;-77
2022/07/04 11:12:54;;;;;;;12.73;2.45;;;32.30;68.20;;;;;;4842568;29;20053;-77
2022/07/04 11:15:29;;;;;;;9.93;1.67;;;32.60;68.80;;;;;;4842699;29;20050;-72
2022/07/04 11:18:09;;;;;;;7.85;1.75;;;32.70;69.90;;;;;;4843398;29;21206;-72
2022/07/04 11:20:49;;;;;;;6.20;1.20;;;32.30;71.40;;;;;;4858307;29;20058;-77
2022/07/04 11:23:20;;;;;;;12.23;2.55;;;32.50;71.50;;;;;;4840610;29;20049;-75
2022/07/04 11:25:54;;;;;;;9.63;2.20;;;32.70;71.80;;;;;;4853468;29;20116;-72
2022/07/04 11:28:31;;;;;;;7.32;1.90;;;32.60;71.90;;;;;;4851327;29;20501;-73
2022/07/04 11:31:01;;;;;;;12.00;1.92;;;32.70;72.40;;;;;;4841489;29;20041;-72
2022/07/04 11:33:39;;;;;;;6.15;1.73;;;32.80;73.70;;;;;;4840468;29;20528;-71
2022/07/04 11:36:20;;;;;;;17.90;2.50;;;33.00;74.20;;;;;;4856263;29;20125;-72
2022/07/04 11:38:51;;;;;;;;;;;33.20;74.80;;;;;;4845646;29;20037;-77
2022/07/04 11:47:14;;;;;;;7.95;1.90;;;33.10;77.30;;;;;;4848247;29;20480;-73
2022/07/04 11:49:46;;;;;;;13.60;2.10;;;33.20;77.70;;;;;;4826775;29;20037;-74
2022/07/04 11:52:17;;;;;;;5.53;1.83;;;33.10;78.80;;;;;;4838937;29;20050;-73
2022/07/04 11:54:49;;;;;;;10.20;3.13;;;33.10;79.10;;;;;;4845679;29;20037;-73
2022/07/04 11:57:36;;;;;;;5.78;1.77;;;33.00;79.50;;;;;;4853533;29;20033;-75
2022/07/04 12:00:31;;;;;;;6.35;1.63;;;33.00;79.80;;;;;;4843352;29;21249;-75
2022/07/04 12:03:10;;;;;;;5.25;1.50;;;33.40;78.60;;;;;;4844289;29;20064;-77
2022/07/04 12:05:37;;;;;;;5.22;1.80;;;34.00;78.00;;;;;;4840589;29;20037;-76
2022/07/04 12:08:07;;;;;;;6.28;1.52;;;33.80;77.80;;;;;;4844456;29;20053;-74
2022/07/04 12:10:34;;;;;;;5.57;1.67;;;33.20;79.80;;;;;;4839175;29;20049;-78
2022/07/04 12:13:11;;;;;;;9.40;1.83;;;33.40;79.60;;;;;;4847267;29;20052;-74
2022/07/04 12:15:45;;;;;;;17.30;2.25;;;33.50;80.00;;;;;;4843430;29;20041;-78
2022/07/04 12:18:17;;;;;;;7.78;1.55;;;33.80;79.80;;;;;;4826039;29;20661;-77
2022/07/04 12:20:44;;;;;;;10.57;2.03;;;34.00;79.70;;;;;;4844015;29;20045;-74
2022/07/04 12:23:10;;;;;;;6.75;1.70;;;33.80;79.90;;;;;;4844220;29;20431;-74
2022/07/04 12:25:38;;;;;;;7.90;2.00;;;33.40;80.60;;;;;;4840963;29;20156;-75
2022/07/04 12:28:05;;;;;;;4.88;1.50;;;33.30;81.10;;;;;;4839308;29;20440;-73
2022/07/04 12:30:34;;;;;;;6.95;1.88;;;33.60;81.40;;;;;;4843636;29;20041;-77
2022/07/04 12:33:02;;;;;;;8.70;1.60;;;33.40;82.30;;;;;;4824231;29;20054;-72
2022/07/04 12:35:44;;;;;;;5.35;1.63;;;33.40;81.30;;;;;;4844417;29;20049;-71
2022/07/04 12:38:14;;;;;;;6.00;1.90;;;34.00;82.20;;;;;;4846238;29;20038;-74
2022/07/04 12:40:58;;;;;;;5.38;1.70;;;34.60;81.60;;;;;;4846829;29;20120;-74
2022/07/04 12:43:39;;;;;;;5.85;1.73;;;34.30;81.80;;;;;;4847255;29;20557;-72
2022/07/04 12:46:06;;;;;;;6.90;2.05;;;34.10;82.30;;;;;;4848320;29;20041;-72
2022/07/04 12:48:32;;;;;;;8.38;2.10;;;34.10;82.60;;;;;;4849361;29;20066;-73
2022/07/04 12:51:12;;;;;;;9.70;1.80;;;33.80;81.50;;;;;;4842492;29;20136;-77
2022/07/04 12:53:39;;;;;;;7.93;2.10;;;33.80;81.80;;;;;;4849608;29;20545;-73
2022/07/04 12:56:05;;;;;;;7.63;2.47;;;34.00;81.90;;;;;;4833144;29;20527;-72
2022/07/04 12:58:31;;;;;;;4.25;1.23;;;34.40;80.90;;;;;;4832707;29;20048;-73
2022/07/04 13:00:57;;;;;;;6.18;1.13;;;34.10;78.80;;;;;;4842810;29;20045;-72
2022/07/04 13:03:23;;;;;;;14.90;1.80;;;34.00;79.60;;;;;;4837490;29;20047;-72
2022/07/04 13:05:49;;;;;;;12.70;2.75;;;33.90;79.20;;;;;;4838034;29;20065;-73